sensor_id;sensor_type;location;lat;lon;timestamp;P1;durP1;ratioP1;P2;durP2;ratioP2
4873;SDS011;2451;49.970;9.068;2023-04-24T00:01:53;2.50;;;1.50;;
4873;SDS011;2451;49.970;9.068;2023-04-24T00:04:20;2.88;;;1.55;;
4873;SDS011;2451;49.970;9.068;2023-04-24T00:06:45;3.85;;;1.75;;
4873;SDS011;2451;49.970;9.068;2023-04-24T00:09:14;4.95;;;1.65;;
4873;SDS011;2451;49.970;9.068;2023-04-24T00:11:39;3.33;;;1.67;;
4873;SDS011;2451;49.970;9.068;2023-04-24T00:14:05;2.75;;;1.70;;
4873;SDS011;2451;49.970;9.068;2023-04-24T00:16:31;2.28;;;1.55;;
4873;SDS011;2451;49.970;9.068;2023-04-24T00:18:57;4.75;;;1.67;;
4873;SDS011;2451;49.970;9.068;2023-04-24T00:21:23;3.58;;;1.60;;
4873;SDS011;2451;49.970;9.068;2023-04-24T00:23:50;3.97;;;1.48;;
4873;SDS011;2451;49.970;9.068;2023-04-24T00:26:16;2.92;;;1.60;;
4873;SDS011;2451;49.970;9.068;2023-04-24T00:28:41;2.90;;;1.40;;
4873;SDS011;2451;49.970;9.068;2023-04-24T00:31:07;2.45;;;1.50;;
4873;SDS011;2451;49.970;9.068;2023-04-24T00:33:33;2.58;;;1.33;;
4873;SDS011;2451;49.970;9.068;2023-04-24T00:35:59;1.90;;;1.38;;
4873;SDS011;2451;49.970;9.068;2023-04-24T00:38:24;2.55;;;1.50;;
4873;SDS011;2451;49.970;9.068;2023-04-24T00:40:50;2.53;;;1.50;;
4873;SDS011;2451;49.970;9.068;2023-04-24T00:43:16;2.80;;;1.35;;
4873;SDS011;2451;49.970;9.068;2023-04-24T00:45:42;2.42;;;1.48;;
4873;SDS011;2451;49.970;9.068;2023-04-24T00:48:08;2.95;;;1.60;;
4873;SDS011;2451;49.970;9.068;2023-04-24T00:50:35;2.78;;;1.40;;
4873;SDS011;2451;49.970;9.068;2023-04-24T00:53:01;3.88;;;1.52;;
4873;SDS011;2451;49.970;9.068;2023-04-24T00:55:27;2.08;;;1.30;;
4873;SDS011;2451;49.970;9.068;2023-04-24T00:57:52;2.47;;;1.50;;
4873;SDS011;2451;49.970;9.068;2023-04-24T01:00:18;2.30;;;1.48;;
4873;SDS011;2451;49.970;9.068;2023-04-24T01:02:44;2.38;;;1.33;;
4873;SDS011;2451;49.970;9.068;2023-04-24T01:05:14;1.88;;;1.20;;
4873;SDS011;2451;49.970;9.068;2023-04-24T01:07:40;3.70;;;1.30;;
4873;SDS011;2451;49.970;9.068;2023-04-24T01:10:13;2.95;;;1.23;;
4873;SDS011;2451;49.970;9.068;2023-04-24T01:12:39;3.60;;;1.50;;
4873;SDS011;2451;49.970;9.068;2023-04-24T01:15:05;1.42;;;1.17;;
4873;SDS011;2451;49.970;9.068;2023-04-24T01:17:32;3.38;;;1.35;;
4873;SDS011;2451;49.970;9.068;2023-04-24T01:19:58;4.80;;;1.40;;
4873;SDS011;2451;49.970;9.068;2023-04-24T01:22:24;3.33;;;1.35;;
4873;SDS011;2451;49.970;9.068;2023-04-24T01:24:51;5.47;;;1.25;;
4873;SDS011;2451;49.970;9.068;2023-04-24T01:27:18;2.55;;;1.33;;
4873;SDS011;2451;49.970;9.068;2023-04-24T01:29:45;3.03;;;1.20;;
4873;SDS011;2451;49.970;9.068;2023-04-24T01:32:12;2.17;;;1.23;;
4873;SDS011;2451;49.970;9.068;2023-04-24T01:34:39;3.42;;;1.40;;
4873;SDS011;2451;49.970;9.068;2023-04-24T01:37:05;2.38;;;1.25;;
4873;SDS011;2451;49.970;9.068;2023-04-24T01:39:31;2.47;;;1.27;;
4873;SDS011;2451;49.970;9.068;2023-04-24T01:41:58;4.70;;;1.48;;
4873;SDS011;2451;49.970;9.068;2023-04-24T01:44:24;3.25;;;1.17;;
4873;SDS011;2451;49.970;9.068;2023-04-24T01:46:51;3.20;;;1.30;;
4873;SDS011;2451;49.970;9.068;2023-04-24T01:49:18;2.67;;;1.45;;
4873;SDS011;2451;49.970;9.068;2023-04-24T01:51:44;2.55;;;1.35;;
4873;SDS011;2451;49.970;9.068;2023-04-24T01:54:10;2.95;;;1.20;;
4873;SDS011;2451;49.970;9.068;2023-04-24T01:56:35;1.75;;;1.00;;
4873;SDS011;2451;49.970;9.068;2023-04-24T01:59:04;1.50;;;1.30;;
4873;SDS011;2451;49.970;9.068;2023-04-24T02:01:34;4.25;;;1.40;;
4873;SDS011;2451;49.970;9.068;2023-04-24T02:04:01;1.98;;;1.15;;
4873;SDS011;2451;49.970;9.068;2023-04-24T02:06:26;2.97;;;1.20;;
4873;SDS011;2451;49.970;9.068;2023-04-24T02:08:52;1.90;;;1.33;;
4873;SDS011;2451;49.970;9.068;2023-04-24T02:11:18;2.80;;;1.10;;
4873;SDS011;2451;49.970;9.068;2023-04-24T02:13:43;2.72;;;1.25;;
4873;SDS011;2451;49.970;9.068;2023-04-24T02:16:09;3.85;;;1.45;;
4873;SDS011;2451;49.970;9.068;2023-04-24T02:18:35;3.58;;;1.20;;
4873;SDS011;2451;49.970;9.068;2023-04-24T02:21:00;1.95;;;1.10;;
4873;SDS011;2451;49.970;9.068;2023-04-24T02:23:26;2.20;;;1.20;;
4873;SDS011;2451;49.970;9.068;2023-04-24T02:25:52;4.75;;;1.50;;
4873;SDS011;2451;49.970;9.068;2023-04-24T02:28:18;2.85;;;1.38;;
4873;SDS011;2451;49.970;9.068;2023-04-24T02:30:44;3.40;;;1.58;;
4873;SDS011;2451;49.970;9.068;2023-04-24T02:33:10;4.10;;;1.50;;
4873;SDS011;2451;49.970;9.068;2023-04-24T02:35:36;4.20;;;1.30;;
4873;SDS011;2451;49.970;9.068;2023-04-24T02:38:02;3.83;;;1.48;;
4873;SDS011;2451;49.970;9.068;2023-04-24T02:40:28;2.63;;;1.33;;
4873;SDS011;2451;49.970;9.068;2023-04-24T02:42:54;3.33;;;1.45;;
4873;SDS011;2451;49.970;9.068;2023-04-24T02:45:19;2.95;;;1.40;;
4873;SDS011;2451;49.970;9.068;2023-04-24T02:47:45;2.22;;;1.20;;
4873;SDS011;2451;49.970;9.068;2023-04-24T02:50:10;3.08;;;1.40;;
4873;SDS011;2451;49.970;9.068;2023-04-24T02:52:36;3.63;;;1.30;;
4873;SDS011;2451;49.970;9.068;2023-04-24T02:55:01;5.13;;;1.50;;
4873;SDS011;2451;49.970;9.068;2023-04-24T02:57:27;2.63;;;1.20;;
4873;SDS011;2451;49.970;9.068;2023-04-24T02:59:53;3.92;;;1.30;;
4873;SDS011;2451;49.970;9.068;2023-04-24T03:02:18;2.20;;;1.23;;
4873;SDS011;2451;49.970;9.068;2023-04-24T03:04:45;2.75;;;1.35;;
4873;SDS011;2451;49.970;9.068;2023-04-24T03:07:12;3.55;;;1.30;;
4873;SDS011;2451;49.970;9.068;2023-04-24T03:09:39;2.53;;;1.15;;
4873;SDS011;2451;49.970;9.068;2023-04-24T03:12:05;2.47;;;0.90;;
4873;SDS011;2451;49.970;9.068;2023-04-24T03:14:31;4.80;;;1.30;;
4873;SDS011;2451;49.970;9.068;2023-04-24T03:16:56;4.07;;;1.40;;
4873;SDS011;2451;49.970;9.068;2023-04-24T03:19:22;4.38;;;1.20;;
4873;SDS011;2451;49.970;9.068;2023-04-24T03:21:47;5.43;;;1.52;;
4873;SDS011;2451;49.970;9.068;2023-04-24T03:24:13;1.95;;;1.10;;
4873;SDS011;2451;49.970;9.068;2023-04-24T03:26:39;2.67;;;1.23;;
4873;SDS011;2451;49.970;9.068;2023-04-24T03:29:04;3.17;;;1.10;;
4873;SDS011;2451;49.970;9.068;2023-04-24T03:31:30;3.15;;;1.30;;
4873;SDS011;2451;49.970;9.068;2023-04-24T03:33:55;2.47;;;1.27;;
4873;SDS011;2451;49.970;9.068;2023-04-24T03:36:21;2.03;;;1.02;;
4873;SDS011;2451;49.970;9.068;2023-04-24T03:38:46;4.97;;;1.33;;
4873;SDS011;2451;49.970;9.068;2023-04-24T03:41:12;2.17;;;1.05;;
4873;SDS011;2451;49.970;9.068;2023-04-24T03:43:37;2.30;;;1.10;;
4873;SDS011;2451;49.970;9.068;2023-04-24T03:46:04;3.65;;;1.30;;
4873;SDS011;2451;49.970;9.068;2023-04-24T03:48:29;1.70;;;1.15;;
4873;SDS011;2451;49.970;9.068;2023-04-24T03:50:55;5.30;;;1.30;;
4873;SDS011;2451;49.970;9.068;2023-04-24T03:53:20;3.13;;;1.23;;
4873;SDS011;2451;49.970;9.068;2023-04-24T03:55:46;2.92;;;1.35;;
4873;SDS011;2451;49.970;9.068;2023-04-24T03:58:12;2.67;;;1.40;;
4873;SDS011;2451;49.970;9.068;2023-04-24T04:00:39;3.08;;;1.50;;
4873;SDS011;2451;49.970;9.068;2023-04-24T04:03:05;3.33;;;1.38;;
4873;SDS011;2451;49.970;9.068;2023-04-24T04:05:31;1.83;;;1.20;;
4873;SDS011;2451;49.970;9.068;2023-04-24T04:07:56;3.72;;;1.60;;
4873;SDS011;2451;49.970;9.068;2023-04-24T04:10:22;1.83;;;1.40;;
4873;SDS011;2451;49.970;9.068;2023-04-24T04:12:47;2.05;;;1.25;;
4873;SDS011;2451;49.970;9.068;2023-04-24T04:15:13;3.40;;;1.50;;
4873;SDS011;2451;49.970;9.068;2023-04-24T04:17:39;2.45;;;1.42;;
4873;SDS011;2451;49.970;9.068;2023-04-24T04:20:04;3.55;;;1.40;;
4873;SDS011;2451;49.970;9.068;2023-04-24T04:22:35;4.10;;;1.90;;
4873;SDS011;2451;49.970;9.068;2023-04-24T04:25:01;3.28;;;1.70;;
4873;SDS011;2451;49.970;9.068;2023-04-24T04:27:28;1.70;;;1.52;;
4873;SDS011;2451;49.970;9.068;2023-04-24T04:29:56;2.83;;;1.67;;
4873;SDS011;2451;49.970;9.068;2023-04-24T04:32:24;1.63;;;1.50;;
4873;SDS011;2451;49.970;9.068;2023-04-24T04:34:49;3.63;;;1.60;;
4873;SDS011;2451;49.970;9.068;2023-04-24T04:37:18;4.68;;;1.50;;
4873;SDS011;2451;49.970;9.068;2023-04-24T04:39:43;1.70;;;1.50;;
4873;SDS011;2451;49.970;9.068;2023-04-24T04:42:09;3.78;;;2.00;;
4873;SDS011;2451;49.970;9.068;2023-04-24T04:44:35;3.92;;;1.88;;
4873;SDS011;2451;49.970;9.068;2023-04-24T04:47:01;2.67;;;1.65;;
4873;SDS011;2451;49.970;9.068;2023-04-24T04:49:30;2.97;;;1.88;;
4873;SDS011;2451;49.970;9.068;2023-04-24T04:51:56;3.42;;;2.03;;
4873;SDS011;2451;49.970;9.068;2023-04-24T04:54:22;4.20;;;2.10;;
4873;SDS011;2451;49.970;9.068;2023-04-24T04:56:49;3.05;;;2.22;;
4873;SDS011;2451;49.970;9.068;2023-04-24T04:59:15;3.67;;;2.13;;
4873;SDS011;2451;49.970;9.068;2023-04-24T05:01:41;3.65;;;2.00;;
4873;SDS011;2451;49.970;9.068;2023-04-24T05:04:06;3.53;;;2.00;;
4873;SDS011;2451;49.970;9.068;2023-04-24T05:06:32;3.22;;;2.30;;
4873;SDS011;2451;49.970;9.068;2023-04-24T05:08:57;4.65;;;2.05;;
4873;SDS011;2451;49.970;9.068;2023-04-24T05:11:23;4.85;;;2.20;;
4873;SDS011;2451;49.970;9.068;2023-04-24T05:13:48;4.82;;;2.40;;
4873;SDS011;2451;49.970;9.068;2023-04-24T05:16:14;3.83;;;2.30;;
4873;SDS011;2451;49.970;9.068;2023-04-24T05:18:40;4.22;;;2.00;;
4873;SDS011;2451;49.970;9.068;2023-04-24T05:21:06;4.30;;;2.33;;
4873;SDS011;2451;49.970;9.068;2023-04-24T05:23:31;3.25;;;2.00;;
4873;SDS011;2451;49.970;9.068;2023-04-24T05:25:57;3.05;;;2.30;;
4873;SDS011;2451;49.970;9.068;2023-04-24T05:28:22;2.97;;;2.30;;
4873;SDS011;2451;49.970;9.068;2023-04-24T05:30:48;2.63;;;2.15;;
4873;SDS011;2451;49.970;9.068;2023-04-24T05:33:13;3.70;;;2.22;;
4873;SDS011;2451;49.970;9.068;2023-04-24T05:35:42;3.97;;;2.40;;
4873;SDS011;2451;49.970;9.068;2023-04-24T05:38:12;3.80;;;2.40;;
4873;SDS011;2451;49.970;9.068;2023-04-24T05:40:38;5.57;;;2.70;;
4873;SDS011;2451;49.970;9.068;2023-04-24T05:43:04;4.15;;;2.25;;
4873;SDS011;2451;49.970;9.068;2023-04-24T05:45:29;4.85;;;2.40;;
4873;SDS011;2451;49.970;9.068;2023-04-24T05:47:55;4.75;;;2.63;;
4873;SDS011;2451;49.970;9.068;2023-04-24T05:50:21;3.40;;;2.25;;
4873;SDS011;2451;49.970;9.068;2023-04-24T05:52:46;3.22;;;2.40;;
4873;SDS011;2451;49.970;9.068;2023-04-24T05:55:12;3.88;;;2.15;;
4873;SDS011;2451;49.970;9.068;2023-04-24T05:57:38;4.30;;;2.30;;
4873;SDS011;2451;49.970;9.068;2023-04-24T06:00:04;3.60;;;2.30;;
4873;SDS011;2451;49.970;9.068;2023-04-24T06:02:30;4.47;;;2.65;;
4873;SDS011;2451;49.970;9.068;2023-04-24T06:04:57;3.83;;;2.53;;
4873;SDS011;2451;49.970;9.068;2023-04-24T06:07:24;5.65;;;2.60;;
4873;SDS011;2451;49.970;9.068;2023-04-24T06:09:51;6.43;;;2.85;;
4873;SDS011;2451;49.970;9.068;2023-04-24T06:12:17;3.47;;;2.60;;
4873;SDS011;2451;49.970;9.068;2023-04-24T06:14:43;5.03;;;2.80;;
4873;SDS011;2451;49.970;9.068;2023-04-24T06:17:08;5.68;;;2.70;;
4873;SDS011;2451;49.970;9.068;2023-04-24T06:19:34;4.60;;;2.78;;
4873;SDS011;2451;49.970;9.068;2023-04-24T06:21:59;4.28;;;2.65;;
4873;SDS011;2451;49.970;9.068;2023-04-24T06:24:28;4.25;;;2.90;;
4873;SDS011;2451;49.970;9.068;2023-04-24T06:26:54;4.25;;;2.47;;
4873;SDS011;2451;49.970;9.068;2023-04-24T06:29:20;5.57;;;2.95;;
4873;SDS011;2451;49.970;9.068;2023-04-24T06:31:45;3.47;;;2.65;;
4873;SDS011;2451;49.970;9.068;2023-04-24T06:34:11;4.03;;;2.50;;
4873;SDS011;2451;49.970;9.068;2023-04-24T06:36:36;4.82;;;3.20;;
4873;SDS011;2451;49.970;9.068;2023-04-24T06:39:02;4.35;;;3.05;;
4873;SDS011;2451;49.970;9.068;2023-04-24T06:41:28;3.40;;;2.60;;
4873;SDS011;2451;49.970;9.068;2023-04-24T06:43:54;4.57;;;3.00;;
4873;SDS011;2451;49.970;9.068;2023-04-24T06:46:19;4.63;;;3.00;;
4873;SDS011;2451;49.970;9.068;2023-04-24T06:48:48;4.18;;;3.00;;
4873;SDS011;2451;49.970;9.068;2023-04-24T06:51:14;3.92;;;2.67;;
4873;SDS011;2451;49.970;9.068;2023-04-24T06:53:40;6.00;;;2.55;;
4873;SDS011;2451;49.970;9.068;2023-04-24T06:56:05;4.32;;;2.85;;
4873;SDS011;2451;49.970;9.068;2023-04-24T06:58:31;6.32;;;2.92;;
4873;SDS011;2451;49.970;9.068;2023-04-24T07:00:57;5.20;;;2.70;;
4873;SDS011;2451;49.970;9.068;2023-04-24T07:03:22;5.05;;;3.30;;
4873;SDS011;2451;49.970;9.068;2023-04-24T07:05:48;4.15;;;2.53;;
4873;SDS011;2451;49.970;9.068;2023-04-24T07:08:14;5.90;;;2.97;;
4873;SDS011;2451;49.970;9.068;2023-04-24T07:10:41;4.22;;;2.78;;
4873;SDS011;2451;49.970;9.068;2023-04-24T07:13:07;5.38;;;2.95;;
4873;SDS011;2451;49.970;9.068;2023-04-24T07:15:33;5.18;;;3.10;;
4873;SDS011;2451;49.970;9.068;2023-04-24T07:17:59;5.78;;;3.30;;
4873;SDS011;2451;49.970;9.068;2023-04-24T07:20:25;4.88;;;3.10;;
4873;SDS011;2451;49.970;9.068;2023-04-24T07:22:50;4.70;;;2.90;;
4873;SDS011;2451;49.970;9.068;2023-04-24T07:25:16;4.85;;;2.72;;
4873;SDS011;2451;49.970;9.068;2023-04-24T07:27:42;5.80;;;3.17;;
4873;SDS011;2451;49.970;9.068;2023-04-24T07:30:08;4.20;;;3.10;;
4873;SDS011;2451;49.970;9.068;2023-04-24T07:32:34;4.75;;;3.03;;
4873;SDS011;2451;49.970;9.068;2023-04-24T07:35:00;5.40;;;3.30;;
4873;SDS011;2451;49.970;9.068;2023-04-24T07:37:25;7.45;;;3.30;;
4873;SDS011;2451;49.970;9.068;2023-04-24T07:39:51;5.18;;;3.47;;
4873;SDS011;2451;49.970;9.068;2023-04-24T07:42:17;5.88;;;3.70;;
4873;SDS011;2451;49.970;9.068;2023-04-24T07:44:42;5.35;;;3.50;;
4873;SDS011;2451;49.970;9.068;2023-04-24T07:47:08;6.57;;;3.65;;
4873;SDS011;2451;49.970;9.068;2023-04-24T07:49:33;5.90;;;3.50;;
4873;SDS011;2451;49.970;9.068;2023-04-24T07:51:59;5.93;;;3.70;;
4873;SDS011;2451;49.970;9.068;2023-04-24T07:54:27;4.60;;;3.15;;
4873;SDS011;2451;49.970;9.068;2023-04-24T07:56:53;5.75;;;3.40;;
4873;SDS011;2451;49.970;9.068;2023-04-24T07:59:19;8.77;;;4.13;;
4873;SDS011;2451;49.970;9.068;2023-04-24T08:01:44;4.50;;;3.40;;
4873;SDS011;2451;49.970;9.068;2023-04-24T08:04:10;5.68;;;3.50;;
4873;SDS011;2451;49.970;9.068;2023-04-24T08:06:36;6.00;;;3.22;;
4873;SDS011;2451;49.970;9.068;2023-04-24T08:09:01;8.23;;;3.80;;
4873;SDS011;2451;49.970;9.068;2023-04-24T08:11:27;5.70;;;3.50;;
4873;SDS011;2451;49.970;9.068;2023-04-24T08:13:53;5.25;;;3.55;;
4873;SDS011;2451;49.970;9.068;2023-04-24T08:16:19;5.35;;;3.83;;
4873;SDS011;2451;49.970;9.068;2023-04-24T08:18:45;5.13;;;3.58;;
4873;SDS011;2451;49.970;9.068;2023-04-24T08:21:10;5.18;;;3.53;;
4873;SDS011;2451;49.970;9.068;2023-04-24T08:23:37;6.90;;;3.42;;
4873;SDS011;2451;49.970;9.068;2023-04-24T08:26:03;7.47;;;3.15;;
4873;SDS011;2451;49.970;9.068;2023-04-24T08:28:29;4.60;;;3.22;;
4873;SDS011;2451;49.970;9.068;2023-04-24T08:30:55;4.25;;;3.30;;
4873;SDS011;2451;49.970;9.068;2023-04-24T08:33:24;3.58;;;2.90;;
4873;SDS011;2451;49.970;9.068;2023-04-24T08:35:49;5.82;;;3.55;;
4873;SDS011;2451;49.970;9.068;2023-04-24T08:38:15;6.18;;;3.42;;
4873;SDS011;2451;49.970;9.068;2023-04-24T08:40:41;4.95;;;3.13;;
4873;SDS011;2451;49.970;9.068;2023-04-24T08:43:08;6.22;;;3.35;;
4873;SDS011;2451;49.970;9.068;2023-04-24T08:45:35;5.22;;;3.38;;
4873;SDS011;2451;49.970;9.068;2023-04-24T08:48:01;5.55;;;2.95;;
4873;SDS011;2451;49.970;9.068;2023-04-24T08:50:27;6.50;;;3.25;;
4873;SDS011;2451;49.970;9.068;2023-04-24T08:52:54;4.35;;;2.92;;
4873;SDS011;2451;49.970;9.068;2023-04-24T08:55:20;5.65;;;3.00;;
4873;SDS011;2451;49.970;9.068;2023-04-24T08:57:49;4.88;;;2.90;;
4873;SDS011;2451;49.970;9.068;2023-04-24T09:00:18;4.53;;;2.78;;
4873;SDS011;2451;49.970;9.068;2023-04-24T09:02:45;3.65;;;2.80;;
4873;SDS011;2451;49.970;9.068;2023-04-24T09:05:13;6.47;;;3.13;;
4873;SDS011;2451;49.970;9.068;2023-04-24T09:07:41;4.68;;;2.70;;
4873;SDS011;2451;49.970;9.068;2023-04-24T09:10:11;4.63;;;2.78;;
4873;SDS011;2451;49.970;9.068;2023-04-24T09:12:37;4.80;;;2.70;;
4873;SDS011;2451;49.970;9.068;2023-04-24T09:15:03;4.97;;;2.70;;
4873;SDS011;2451;49.970;9.068;2023-04-24T09:17:30;3.78;;;2.70;;
4873;SDS011;2451;49.970;9.068;2023-04-24T09:19:56;4.55;;;2.75;;
4873;SDS011;2451;49.970;9.068;2023-04-24T09:22:21;4.97;;;2.70;;
4873;SDS011;2451;49.970;9.068;2023-04-24T09:24:47;5.68;;;2.80;;
4873;SDS011;2451;49.970;9.068;2023-04-24T09:27:13;5.18;;;2.60;;
4873;SDS011;2451;49.970;9.068;2023-04-24T09:29:45;4.63;;;3.03;;
4873;SDS011;2451;49.970;9.068;2023-04-24T09:32:20;4.70;;;2.88;;
4873;SDS011;2451;49.970;9.068;2023-04-24T09:34:47;5.00;;;3.15;;
4873;SDS011;2451;49.970;9.068;2023-04-24T09:37:29;3.97;;;3.13;;
4873;SDS011;2451;49.970;9.068;2023-04-24T09:40:11;4.00;;;2.80;;
4873;SDS011;2451;49.970;9.068;2023-04-24T09:42:41;4.75;;;3.30;;
4873;SDS011;2451;49.970;9.068;2023-04-24T09:45:10;6.18;;;2.90;;
4873;SDS011;2451;49.970;9.068;2023-04-24T09:47:37;5.15;;;2.92;;
4873;SDS011;2451;49.970;9.068;2023-04-24T09:50:13;5.28;;;2.80;;
4873;SDS011;2451;49.970;9.068;2023-04-24T09:52:44;4.70;;;2.72;;
4873;SDS011;2451;49.970;9.068;2023-04-24T09:55:12;3.65;;;2.70;;
4873;SDS011;2451;49.970;9.068;2023-04-24T10:00:31;3.63;;;2.60;;
4873;SDS011;2451;49.970;9.068;2023-04-24T10:03:02;4.65;;;3.00;;
4873;SDS011;2451;49.970;9.068;2023-04-24T10:05:30;4.65;;;2.83;;
4873;SDS011;2451;49.970;9.068;2023-04-24T10:08:00;4.32;;;2.72;;
4873;SDS011;2451;49.970;9.068;2023-04-24T10:10:30;3.03;;;2.55;;
4873;SDS011;2451;49.970;9.068;2023-04-24T10:12:56;3.65;;;2.65;;
4873;SDS011;2451;49.970;9.068;2023-04-24T10:15:22;3.88;;;2.60;;
4873;SDS011;2451;49.970;9.068;2023-04-24T10:17:49;4.13;;;2.85;;
4873;SDS011;2451;49.970;9.068;2023-04-24T10:20:22;4.90;;;2.78;;
4873;SDS011;2451;49.970;9.068;2023-04-24T10:22:50;4.22;;;2.95;;
4873;SDS011;2451;49.970;9.068;2023-04-24T10:25:17;3.95;;;2.90;;
4873;SDS011;2451;49.970;9.068;2023-04-24T10:27:48;4.30;;;2.90;;
4873;SDS011;2451;49.970;9.068;2023-04-24T10:30:15;3.40;;;2.95;;
4873;SDS011;2451;49.970;9.068;2023-04-24T10:32:42;4.75;;;2.83;;
4873;SDS011;2451;49.970;9.068;2023-04-24T10:35:07;3.97;;;2.80;;
4873;SDS011;2451;49.970;9.068;2023-04-24T10:37:38;4.43;;;2.95;;
4873;SDS011;2451;49.970;9.068;2023-04-24T10:40:08;4.18;;;3.10;;
4873;SDS011;2451;49.970;9.068;2023-04-24T10:42:34;4.35;;;3.03;;
4873;SDS011;2451;49.970;9.068;2023-04-24T10:45:05;4.63;;;3.00;;
4873;SDS011;2451;49.970;9.068;2023-04-24T10:47:39;5.55;;;3.40;;
4873;SDS011;2451;49.970;9.068;2023-04-24T10:50:12;4.22;;;3.10;;
4873;SDS011;2451;49.970;9.068;2023-04-24T10:52:44;4.18;;;3.10;;
4873;SDS011;2451;49.970;9.068;2023-04-24T10:55:10;4.80;;;3.10;;
4873;SDS011;2451;49.970;9.068;2023-04-24T10:57:39;3.83;;;2.70;;
4873;SDS011;2451;49.970;9.068;2023-04-24T11:00:18;3.95;;;3.05;;
4873;SDS011;2451;49.970;9.068;2023-04-24T11:02:45;4.75;;;2.70;;
4873;SDS011;2451;49.970;9.068;2023-04-24T11:05:18;3.80;;;2.95;;
4873;SDS011;2451;49.970;9.068;2023-04-24T11:10:39;5.45;;;2.70;;
4873;SDS011;2451;49.970;9.068;2023-04-24T11:15:34;3.17;;;2.40;;
4873;SDS011;2451;49.970;9.068;2023-04-24T11:17:59;3.92;;;2.65;;
4873;SDS011;2451;49.970;9.068;2023-04-24T11:20:25;3.45;;;2.45;;
4873;SDS011;2451;49.970;9.068;2023-04-24T11:22:52;3.75;;;2.40;;
4873;SDS011;2451;49.970;9.068;2023-04-24T11:25:19;5.38;;;2.70;;
4873;SDS011;2451;49.970;9.068;2023-04-24T11:27:47;4.22;;;2.38;;
4873;SDS011;2451;49.970;9.068;2023-04-24T11:30:17;4.93;;;3.05;;
4873;SDS011;2451;49.970;9.068;2023-04-24T11:32:47;6.78;;;3.35;;
4873;SDS011;2451;49.970;9.068;2023-04-24T11:35:16;6.13;;;3.40;;
4873;SDS011;2451;49.970;9.068;2023-04-24T11:37:48;5.10;;;3.10;;
4873;SDS011;2451;49.970;9.068;2023-04-24T11:40:15;5.00;;;3.58;;
4873;SDS011;2451;49.970;9.068;2023-04-24T11:42:42;4.53;;;3.28;;
4873;SDS011;2451;49.970;9.068;2023-04-24T11:45:13;7.35;;;3.33;;
4873;SDS011;2451;49.970;9.068;2023-04-24T11:47:51;7.03;;;3.90;;
4873;SDS011;2451;49.970;9.068;2023-04-24T11:50:18;6.03;;;3.88;;
4873;SDS011;2451;49.970;9.068;2023-04-24T11:52:47;5.50;;;3.58;;
4873;SDS011;2451;49.970;9.068;2023-04-24T11:57:42;7.95;;;3.60;;
4873;SDS011;2451;49.970;9.068;2023-04-24T12:02:40;4.45;;;3.10;;
4873;SDS011;2451;49.970;9.068;2023-04-24T12:05:06;4.53;;;2.40;;
4873;SDS011;2451;49.970;9.068;2023-04-24T12:07:32;5.07;;;3.13;;
4873;SDS011;2451;49.970;9.068;2023-04-24T12:10:08;4.13;;;2.90;;
4873;SDS011;2451;49.970;9.068;2023-04-24T12:12:34;6.43;;;3.97;;
4873;SDS011;2451;49.970;9.068;2023-04-24T12:15:00;4.70;;;3.40;;
4873;SDS011;2451;49.970;9.068;2023-04-24T12:17:30;6.32;;;4.30;;
4873;SDS011;2451;49.970;9.068;2023-04-24T12:19:57;5.50;;;3.70;;
4873;SDS011;2451;49.970;9.068;2023-04-24T12:22:28;6.93;;;4.18;;
4873;SDS011;2451;49.970;9.068;2023-04-24T12:25:11;8.63;;;5.53;;
4873;SDS011;2451;49.970;9.068;2023-04-24T12:27:37;8.90;;;6.35;;
4873;SDS011;2451;49.970;9.068;2023-04-24T12:30:03;7.25;;;3.80;;
4873;SDS011;2451;49.970;9.068;2023-04-24T12:32:31;6.70;;;4.05;;
4873;SDS011;2451;49.970;9.068;2023-04-24T12:34:57;9.00;;;7.07;;
4873;SDS011;2451;49.970;9.068;2023-04-24T12:37:24;6.40;;;4.43;;
4873;SDS011;2451;49.970;9.068;2023-04-24T12:40:07;7.50;;;4.82;;
4873;SDS011;2451;49.970;9.068;2023-04-24T12:42:41;6.35;;;4.38;;
4873;SDS011;2451;49.970;9.068;2023-04-24T12:45:08;7.72;;;4.47;;
4873;SDS011;2451;49.970;9.068;2023-04-24T12:47:34;5.10;;;3.80;;
4873;SDS011;2451;49.970;9.068;2023-04-24T12:50:01;6.97;;;4.10;;
4873;SDS011;2451;49.970;9.068;2023-04-24T12:52:28;6.68;;;3.97;;
4873;SDS011;2451;49.970;9.068;2023-04-24T12:54:56;5.63;;;3.60;;
4873;SDS011;2451;49.970;9.068;2023-04-24T12:57:23;6.72;;;3.75;;
4873;SDS011;2451;49.970;9.068;2023-04-24T12:59:49;4.30;;;3.40;;
4873;SDS011;2451;49.970;9.068;2023-04-24T13:02:15;4.80;;;3.03;;
4873;SDS011;2451;49.970;9.068;2023-04-24T13:04:43;6.38;;;3.40;;
4873;SDS011;2451;49.970;9.068;2023-04-24T13:07:11;5.93;;;3.17;;
4873;SDS011;2451;49.970;9.068;2023-04-24T13:09:37;6.28;;;3.35;;
4873;SDS011;2451;49.970;9.068;2023-04-24T13:12:03;6.88;;;3.60;;
4873;SDS011;2451;49.970;9.068;2023-04-24T13:14:30;5.93;;;3.45;;
4873;SDS011;2451;49.970;9.068;2023-04-24T13:16:56;6.32;;;3.97;;
4873;SDS011;2451;49.970;9.068;2023-04-24T13:19:23;6.00;;;3.92;;
4873;SDS011;2451;49.970;9.068;2023-04-24T13:21:50;7.18;;;3.95;;
4873;SDS011;2451;49.970;9.068;2023-04-24T13:24:15;6.68;;;4.07;;
4873;SDS011;2451;49.970;9.068;2023-04-24T13:26:42;6.47;;;3.60;;
4873;SDS011;2451;49.970;9.068;2023-04-24T13:29:07;6.47;;;4.07;;
4873;SDS011;2451;49.970;9.068;2023-04-24T13:31:33;5.63;;;3.65;;
4873;SDS011;2451;49.970;9.068;2023-04-24T13:33:59;5.93;;;3.65;;
4873;SDS011;2451;49.970;9.068;2023-04-24T13:36:24;6.28;;;3.70;;
4873;SDS011;2451;49.970;9.068;2023-04-24T13:38:50;7.70;;;3.63;;
4873;SDS011;2451;49.970;9.068;2023-04-24T13:41:16;5.82;;;3.42;;
4873;SDS011;2451;49.970;9.068;2023-04-24T13:43:41;6.10;;;3.78;;
4873;SDS011;2451;49.970;9.068;2023-04-24T13:46:07;4.95;;;3.53;;
4873;SDS011;2451;49.970;9.068;2023-04-24T13:48:33;6.93;;;3.92;;
4873;SDS011;2451;49.970;9.068;2023-04-24T13:50:59;5.95;;;3.80;;
4873;SDS011;2451;49.970;9.068;2023-04-24T13:53:25;5.80;;;3.35;;
4873;SDS011;2451;49.970;9.068;2023-04-24T13:55:50;7.07;;;3.70;;
4873;SDS011;2451;49.970;9.068;2023-04-24T13:58:16;5.50;;;3.70;;
4873;SDS011;2451;49.970;9.068;2023-04-24T14:00:41;7.25;;;5.03;;
4873;SDS011;2451;49.970;9.068;2023-04-24T14:03:07;5.95;;;4.00;;
4873;SDS011;2451;49.970;9.068;2023-04-24T14:05:32;9.38;;;4.30;;
4873;SDS011;2451;49.970;9.068;2023-04-24T14:07:58;5.60;;;3.78;;
4873;SDS011;2451;49.970;9.068;2023-04-24T14:10:23;6.85;;;4.03;;
4873;SDS011;2451;49.970;9.068;2023-04-24T14:12:49;7.60;;;4.47;;
4873;SDS011;2451;49.970;9.068;2023-04-24T14:15:15;10.88;;;4.60;;
4873;SDS011;2451;49.970;9.068;2023-04-24T14:17:41;8.68;;;4.60;;
4873;SDS011;2451;49.970;9.068;2023-04-24T14:20:07;7.68;;;4.43;;
4873;SDS011;2451;49.970;9.068;2023-04-24T14:22:34;8.50;;;4.88;;
4873;SDS011;2451;49.970;9.068;2023-04-24T14:24:59;6.75;;;3.88;;
4873;SDS011;2451;49.970;9.068;2023-04-24T14:27:25;7.95;;;4.05;;
4873;SDS011;2451;49.970;9.068;2023-04-24T14:29:51;6.55;;;3.58;;
4873;SDS011;2451;49.970;9.068;2023-04-24T14:32:17;5.88;;;3.40;;
4873;SDS011;2451;49.970;9.068;2023-04-24T14:34:43;6.00;;;3.60;;
4873;SDS011;2451;49.970;9.068;2023-04-24T14:37:08;8.18;;;3.85;;
4873;SDS011;2451;49.970;9.068;2023-04-24T14:39:34;6.45;;;3.90;;
4873;SDS011;2451;49.970;9.068;2023-04-24T14:42:00;7.68;;;3.72;;
4873;SDS011;2451;49.970;9.068;2023-04-24T14:44:26;5.40;;;3.17;;
4873;SDS011;2451;49.970;9.068;2023-04-24T14:46:51;6.75;;;3.78;;
4873;SDS011;2451;49.970;9.068;2023-04-24T14:49:18;6.15;;;3.63;;
4873;SDS011;2451;49.970;9.068;2023-04-24T14:51:43;7.18;;;3.63;;
4873;SDS011;2451;49.970;9.068;2023-04-24T14:54:09;5.80;;;3.55;;
4873;SDS011;2451;49.970;9.068;2023-04-24T14:56:34;6.85;;;3.80;;
4873;SDS011;2451;49.970;9.068;2023-04-24T14:59:00;5.20;;;3.67;;
4873;SDS011;2451;49.970;9.068;2023-04-24T15:01:26;8.10;;;3.60;;
4873;SDS011;2451;49.970;9.068;2023-04-24T15:03:51;6.38;;;3.58;;
4873;SDS011;2451;49.970;9.068;2023-04-24T15:06:17;6.95;;;3.42;;
4873;SDS011;2451;49.970;9.068;2023-04-24T15:08:43;6.93;;;3.65;;
4873;SDS011;2451;49.970;9.068;2023-04-24T15:11:11;6.07;;;3.47;;
4873;SDS011;2451;49.970;9.068;2023-04-24T15:13:37;7.07;;;3.75;;
4873;SDS011;2451;49.970;9.068;2023-04-24T15:16:03;5.57;;;3.78;;
4873;SDS011;2451;49.970;9.068;2023-04-24T15:18:28;6.07;;;3.97;;
4873;SDS011;2451;49.970;9.068;2023-04-24T15:20:54;4.85;;;3.80;;
4873;SDS011;2451;49.970;9.068;2023-04-24T15:23:20;6.88;;;3.70;;
4873;SDS011;2451;49.970;9.068;2023-04-24T15:25:46;6.50;;;4.30;;